Time;durP1;ratioP1;P1;durP2;ratioP2;P2;SDS_P1;SDS_P2;PMS_P1;PMS_P2;Temp;Humidity;BMP_temperature;BMP_pressure;BME280_temperature;BME280_humidity;BME280_pressure;Samples;Min_cycle;Max_cycle;Signal;HPM_P1;HPM_P2
2021/08/14 00:01:52;;;;;;;7.03;3.00;;;18.60;82.00;;;;;;5054499;28;20372;-76
2021/08/14 00:04:17;;;;;;;5.22;2.00;;;18.60;82.10;;;;;;5054987;28;20114;-76
2021/08/14 00:06:43;;;;;;;6.07;2.13;;;18.60;82.10;;;;;;5054871;28;20067;-76
2021/08/14 00:09:08;;;;;;;8.07;2.08;;;18.60;82.30;;;;;;5054032;28;20021;-75
2021/08/14 00:11:34;;;;;;;6.97;1.77;;;18.60;82.50;;;;;;5054762;28;20452;-76
2021/08/14 00:14:00;;;;;;;5.13;2.50;;;18.50;82.40;;;;;;5054113;28;20028;-76
2021/08/14 00:16:26;;;;;;;6.22;1.90;;;18.50;83.00;;;;;;5054365;28;20025;-76
2021/08/14 00:18:52;;;;;;;8.07;1.90;;;18.50;82.80;;;;;;5054187;28;20016;-76
2021/08/14 00:21:18;;;;;;;7.93;2.28;;;18.40;82.80;;;;;;5054299;28;20028;-76
2021/08/14 00:23:43;;;;;;;9.35;2.22;;;18.50;83.10;;;;;;5054670;28;20025;-76
2021/08/14 00:26:09;;;;;;;5.03;1.85;;;18.40;83.10;;;;;;5053645;28;20021;-77
2021/08/14 00:28:36;;;;;;;9.23;2.30;;;18.50;83.20;;;;;;5054296;28;20075;-77
2021/08/14 00:31:01;;;;;;;6.20;2.28;;;18.40;83.10;;;;;;5053500;28;20069;-76
2021/08/14 00:33:27;;;;;;;5.15;2.10;;;18.40;83.10;;;;;;5054588;28;20464;-77
2021/08/14 00:35:53;;;;;;;5.20;1.77;;;18.40;83.10;;;;;;5053851;28;20119;-76
2021/08/14 00:38:18;;;;;;;7.03;2.28;;;18.50;83.30;;;;;;5054017;28;20021;-77
2021/08/14 00:40:44;;;;;;;8.18;1.63;;;18.50;83.20;;;;;;5054121;28;20017;-76
2021/08/14 00:43:10;;;;;;;5.47;2.15;;;18.50;83.30;;;;;;5051894;28;20495;-76
2021/08/14 00:45:40;;;;;;;8.30;2.30;;;18.40;83.30;;;;;;5052828;28;20021;-77
2021/08/14 00:48:08;;;;;;;6.65;2.17;;;18.50;83.60;;;;;;5053213;28;20437;-76
2021/08/14 00:50:35;;;;;;;4.80;1.90;;;18.50;83.60;;;;;;5054066;28;20060;-76
2021/08/14 00:53:01;;;;;;;6.85;2.13;;;18.50;83.70;;;;;;5053554;28;20063;-76
2021/08/14 00:55:26;;;;;;;6.72;2.22;;;18.50;83.70;;;;;;5054029;28;20021;-76
2021/08/14 00:57:52;;;;;;;6.40;2.15;;;18.50;83.80;;;;;;5053273;28;20044;-76
2021/08/14 01:00:18;;;;;;;6.38;2.30;;;18.50;83.70;;;;;;5054095;28;20361;-76
2021/08/14 01:02:43;;;;;;;7.00;2.50;;;18.50;83.80;;;;;;5053547;28;20082;-77
2021/08/14 01:05:11;;;;;;;4.10;1.48;;;18.60;83.80;;;;;;5053390;28;20029;-76
2021/08/14 01:07:38;;;;;;;10.23;2.50;;;18.50;83.70;;;;;;5053619;28;20056;-76
2021/08/14 01:10:04;;;;;;;7.38;2.40;;;18.50;83.80;;;;;;5052996;28;20021;-76
2021/08/14 01:12:30;;;;;;;4.53;1.88;;;18.50;84.00;;;;;;5053332;28;20020;-76
2021/08/14 01:14:56;;;;;;;8.45;2.50;;;18.50;84.10;;;;;;5052774;28;20120;-76
2021/08/14 01:17:21;;;;;;;3.88;1.75;;;18.50;84.20;;;;;;5053333;28;20052;-77
2021/08/14 01:19:47;;;;;;;8.20;2.55;;;18.50;84.20;;;;;;5053761;28;20100;-76
2021/08/14 01:22:15;;;;;;;5.25;2.08;;;18.40;84.30;;;;;;5052856;28;20028;-76
2021/08/14 01:24:43;;;;;;;7.13;2.13;;;18.40;84.40;;;;;;5053216;28;20021;-76
2021/08/14 01:27:09;;;;;;;7.85;2.50;;;18.40;84.60;;;;;;5052655;28;20053;-76
2021/08/14 01:29:37;;;;;;;7.05;2.75;;;18.40;84.80;;;;;;5053433;28;20047;-78
2021/08/14 01:32:05;;;;;;;6.72;2.25;;;18.40;85.00;;;;;;5052228;28;20023;-77
2021/08/14 01:34:30;;;;;;;7.85;2.58;;;18.30;84.90;;;;;;5053281;28;20118;-78
2021/08/14 01:36:56;;;;;;;5.57;1.92;;;18.30;85.10;;;;;;5052476;28;20441;-78
2021/08/14 01:39:22;;;;;;;10.77;3.05;;;18.30;85.10;;;;;;5053131;28;20074;-78
2021/08/14 01:42:05;;;;;;;5.63;2.15;;;18.30;85.40;;;;;;5053111;28;20021;-78
2021/08/14 01:44:32;;;;;;;4.95;1.95;;;18.20;85.50;;;;;;5052951;28;20057;-78
2021/08/14 01:46:58;;;;;;;9.75;2.30;;;18.20;85.60;;;;;;5052206;28;20021;-78
2021/08/14 01:49:27;;;;;;;6.18;2.50;;;18.20;85.60;;;;;;5052850;28;20449;-77
2021/08/14 01:51:53;;;;;;;6.68;2.05;;;18.20;85.70;;;;;;5052005;28;20083;-76
2021/08/14 01:54:20;;;;;;;8.15;2.10;;;18.20;85.70;;;;;;5054865;28;20051;-78
2021/08/14 01:56:46;;;;;;;7.45;2.30;;;18.20;85.70;;;;;;5052827;28;20063;-78
2021/08/14 01:59:12;;;;;;;5.75;2.28;;;18.20;85.60;;;;;;5052209;28;20348;-78
2021/08/14 02:01:38;;;;;;;8.82;2.60;;;18.20;85.60;;;;;;5052470;28;20072;-78
2021/08/14 02:04:04;;;;;;;8.43;2.72;;;18.20;85.80;;;;;;5050809;28;20060;-77
2021/08/14 02:06:30;;;;;;;6.68;2.20;;;18.20;85.90;;;;;;5052677;28;20544;-78
2021/08/14 02:08:56;;;;;;;7.68;2.42;;;18.30;86.10;;;;;;5052004;28;20097;-78
2021/08/14 02:11:34;;;;;;;7.38;2.30;;;18.30;86.10;;;;;;5052443;28;20221;-78
2021/08/14 02:14:00;;;;;;;7.28;2.60;;;18.30;86.30;;;;;;5052103;28;20092;-78
2021/08/14 02:16:25;;;;;;;8.10;2.92;;;18.20;86.30;;;;;;5051482;28;20340;-78
2021/08/14 02:18:51;;;;;;;7.32;2.88;;;18.20;86.50;;;;;;5052596;28;20104;-75
2021/08/14 02:21:17;;;;;;;7.82;2.70;;;18.10;86.90;;;;;;5051788;28;20441;-75
2021/08/14 02:23:43;;;;;;;7.50;2.60;;;18.10;86.70;;;;;;5052424;28;20033;-76
2021/08/14 02:26:09;;;;;;;11.10;3.33;;;18.00;86.90;;;;;;5051738;28;20052;-76
2021/08/14 02:28:35;;;;;;;7.50;2.30;;;18.00;87.10;;;;;;5051965;28;20107;-75
2021/08/14 02:31:01;;;;;;;7.60;2.35;;;18.00;87.30;;;;;;5051454;28;20017;-75
2021/08/14 02:33:28;;;;;;;7.47;2.88;;;18.00;87.40;;;;;;5052347;28;20040;-79
2021/08/14 02:35:54;;;;;;;9.48;3.00;;;18.00;87.50;;;;;;5052316;28;20017;-78
2021/08/14 02:38:19;;;;;;;8.80;2.88;;;18.00;87.50;;;;;;5051633;28;20028;-78
2021/08/14 02:40:48;;;;;;;6.65;2.63;;;18.00;87.50;;;;;;5052114;28;20021;-75
2021/08/14 02:43:15;;;;;;;5.68;1.92;;;18.00;87.50;;;;;;5051169;28;20067;-76
2021/08/14 02:45:41;;;;;;;9.65;3.15;;;17.90;87.50;;;;;;5051588;28;20029;-76
2021/08/14 02:48:07;;;;;;;6.47;2.25;;;17.90;88.30;;;;;;5051480;28;20029;-75
2021/08/14 02:50:33;;;;;;;9.35;2.92;;;17.90;87.80;;;;;;5052229;28;20024;-78
2021/08/14 02:52:59;;;;;;;6.85;2.42;;;17.80;87.90;;;;;;5051435;28;20032;-78
2021/08/14 02:55:25;;;;;;;6.13;2.10;;;17.80;88.00;;;;;;5051640;28;20074;-78
2021/08/14 02:57:51;;;;;;;9.25;2.63;;;17.80;88.00;;;;;;5052107;28;20025;-78
2021/08/14 03:00:17;;;;;;;8.50;3.25;;;17.80;88.10;;;;;;5051330;28;20270;-78
2021/08/14 03:02:43;;;;;;;5.97;2.72;;;17.80;88.20;;;;;;5051685;28;20080;-79
2021/08/14 03:05:09;;;;;;;7.05;3.03;;;17.80;88.20;;;;;;5050940;28;20477;-76
2021/08/14 03:07:35;;;;;;;9.48;2.88;;;17.80;88.20;;;;;;5052119;28;20042;-78
2021/08/14 03:10:00;;;;;;;8.52;2.38;;;17.80;88.30;;;;;;5051203;28;20096;-76
2021/08/14 03:12:26;;;;;;;7.97;3.05;;;17.80;88.20;;;;;;5051723;28;20017;-76
2021/08/14 03:14:53;;;;;;;10.23;2.50;;;17.80;88.30;;;;;;5051807;28;20441;-76
2021/08/14 03:17:19;;;;;;;11.82;2.83;;;17.80;88.30;;;;;;5051199;28;20024;-76
2021/08/14 03:19:45;;;;;;;8.30;2.90;;;17.80;88.40;;;;;;5051859;28;20029;-76
2021/08/14 03:22:11;;;;;;;8.23;3.05;;;17.70;88.40;;;;;;5050963;28;20028;-76
2021/08/14 03:24:37;;;;;;;7.07;2.95;;;17.70;88.50;;;;;;5051564;28;20025;-76
2021/08/14 03:27:05;;;;;;;7.20;2.88;;;17.70;88.70;;;;;;5050916;28;20040;-77
2021/08/14 03:29:30;;;;;;;9.55;2.90;;;17.70;88.90;;;;;;5051910;28;20010;-77
2021/08/14 03:31:56;;;;;;;11.15;3.03;;;17.70;88.90;;;;;;5051491;28;20019;-77
2021/08/14 03:34:22;;;;;;;7.90;3.05;;;17.70;88.80;;;;;;5051255;28;20032;-77
2021/08/14 03:36:47;;;;;;;7.18;2.50;;;17.60;88.80;;;;;;5051566;28;20017;-77
2021/08/14 03:39:13;;;;;;;9.13;3.38;;;17.60;88.80;;;;;;5051063;28;20053;-76
2021/08/14 03:41:39;;;;;;;10.48;3.13;;;17.60;89.00;;;;;;5051614;28;20021;-77
2021/08/14 03:44:05;;;;;;;6.70;2.60;;;17.60;89.00;;;;;;5050855;28;20358;-76
2021/08/14 03:46:31;;;;;;;8.80;2.88;;;17.60;89.00;;;;;;5051778;28;20044;-77
2021/08/14 03:48:56;;;;;;;8.40;2.78;;;17.70;89.00;;;;;;5051505;28;20025;-77
2021/08/14 03:51:22;;;;;;;9.43;3.08;;;17.70;89.10;;;;;;5050773;28;20028;-77
2021/08/14 03:53:48;;;;;;;6.47;3.13;;;17.60;88.90;;;;;;5050067;28;20021;-77
2021/08/14 03:56:14;;;;;;;16.85;3.42;;;17.70;88.90;;;;;;5052988;28;20391;-76
2021/08/14 03:58:39;;;;;;;9.75;3.42;;;17.60;89.10;;;;;;5055013;28;20437;-77
2021/08/14 04:01:05;;;;;;;9.07;3.08;;;17.60;89.10;;;;;;5054352;28;20048;-76
2021/08/14 04:03:30;;;;;;;7.30;3.10;;;17.50;89.20;;;;;;5053583;28;20061;-76
2021/08/14 04:05:57;;;;;;;9.70;4.03;;;17.50;89.30;;;;;;5053694;28;20368;-77
2021/08/14 04:08:23;;;;;;;10.15;2.97;;;17.40;89.40;;;;;;5054169;28;20028;-77
2021/08/14 04:10:49;;;;;;;9.68;3.47;;;17.40;89.40;;;;;;5054615;28;20416;-76
2021/08/14 04:13:14;;;;;;;6.68;3.13;;;17.40;89.50;;;;;;5054143;28;20017;-76
2021/08/14 04:15:40;;;;;;;9.38;3.63;;;17.40;89.60;;;;;;5055249;28;20029;-76
2021/08/14 04:18:06;;;;;;;9.70;4.28;;;17.40;89.60;;;;;;5058513;28;20059;-76
2021/08/14 04:20:32;;;;;;;13.15;3.67;;;17.30;89.60;;;;;;5055500;28;20020;-77
2021/08/14 04:22:57;;;;;;;9.07;3.65;;;17.30;89.70;;;;;;5053258;28;20051;-76
2021/08/14 04:25:23;;;;;;;10.07;3.85;;;17.30;89.80;;;;;;5053918;28;20514;-76
2021/08/14 04:27:49;;;;;;;10.32;3.40;;;17.30;89.90;;;;;;5054364;28;20115;-76
2021/08/14 04:30:15;;;;;;;9.75;4.10;;;17.30;89.90;;;;;;5053832;28;20032;-77
2021/08/14 04:32:41;;;;;;;6.43;3.35;;;17.30;89.90;;;;;;5054349;28;20024;-77
2021/08/14 04:35:14;;;;;;;6.63;3.33;;;17.30;90.00;;;;;;5054082;28;20024;-75
2021/08/14 04:37:40;;;;;;;7.60;2.65;;;17.20;90.00;;;;;;5053260;28;20356;-76
2021/08/14 04:40:09;;;;;;;10.10;3.22;;;17.20;90.00;;;;;;5053982;28;20029;-77
2021/08/14 04:42:35;;;;;;;11.82;3.80;;;17.30;90.00;;;;;;5054131;28;20013;-76
2021/08/14 04:45:01;;;;;;;10.00;3.60;;;17.30;90.00;;;;;;5054185;28;20063;-76
2021/08/14 04:47:27;;;;;;;8.40;3.75;;;17.30;90.00;;;;;;5053510;28;20028;-77
2021/08/14 04:49:53;;;;;;;7.90;3.85;;;17.30;90.00;;;;;;5053808;28;20025;-76
2021/08/14 04:52:18;;;;;;;8.32;3.55;;;17.30;90.00;;;;;;5052254;28;20102;-76
2021/08/14 04:54:44;;;;;;;7.43;3.38;;;17.30;90.00;;;;;;5053632;28;20054;-76
2021/08/14 04:57:09;;;;;;;11.95;3.88;;;17.30;89.90;;;;;;5053324;28;20361;-76
2021/08/14 04:59:35;;;;;;;9.30;3.40;;;17.30;90.00;;;;;;5053897;28;20024;-77
2021/08/14 05:02:03;;;;;;;7.82;3.08;;;17.30;90.00;;;;;;5051735;28;20028;-77
2021/08/14 05:04:32;;;;;;;8.30;3.83;;;17.20;90.00;;;;;;5052418;28;20033;-77
2021/08/14 05:07:00;;;;;;;8.68;3.75;;;17.30;90.00;;;;;;5052901;28;20023;-77
2021/08/14 05:09:26;;;;;;;5.43;2.28;;;17.20;90.00;;;;;;5053158;28;20345;-78
2021/08/14 05:11:51;;;;;;;9.45;3.47;;;17.30;90.00;;;;;;5053606;28;20449;-77
2021/08/14 05:14:17;;;;;;;6.35;3.35;;;17.30;90.00;;;;;;5052493;28;20021;-77
2021/08/14 05:16:43;;;;;;;10.88;3.67;;;17.20;90.00;;;;;;5053388;28;20036;-77
2021/08/14 05:19:08;;;;;;;7.82;3.22;;;17.20;90.10;;;;;;5051572;28;20093;-76
2021/08/14 05:21:34;;;;;;;8.38;4.00;;;17.20;90.10;;;;;;5053416;28;20146;-77
2021/08/14 05:24:01;;;;;;;13.02;2.88;;;17.20;90.10;;;;;;5053673;28;20369;-77
2021/08/14 05:26:26;;;;;;;7.82;3.40;;;17.20;90.10;;;;;;5052464;28;20017;-77
2021/08/14 05:28:53;;;;;;;11.45;4.13;;;17.20;90.10;;;;;;5052889;28;20051;-77
2021/08/14 05:31:19;;;;;;;9.68;3.80;;;17.20;90.20;;;;;;5052256;28;20013;-77
2021/08/14 05:33:44;;;;;;;10.77;4.07;;;17.20;90.20;;;;;;5051820;28;20323;-77
2021/08/14 05:36:11;;;;;;;7.97;3.17;;;17.20;90.20;;;;;;5052620;28;20092;-77
2021/08/14 05:38:37;;;;;;;11.00;4.07;;;17.30;90.20;;;;;;5053245;28;20021;-77
2021/08/14 05:41:06;;;;;;;13.32;4.78;;;17.30;90.10;;;;;;5051900;28;20360;-77
2021/08/14 05:43:32;;;;;;;10.77;4.07;;;17.30;90.10;;;;;;5052415;28;20075;-77
2021/08/14 05:45:58;;;;;;;12.85;4.47;;;17.30;90.10;;;;;;5052846;28;20021;-77
2021/08/14 05:48:23;;;;;;;9.13;3.78;;;17.30;90.00;;;;;;5051982;28;20023;-77
2021/08/14 05:50:49;;;;;;;7.70;3.20;;;17.20;90.00;;;;;;5053188;28;20445;-77
2021/08/14 05:53:15;;;;;;;10.20;3.80;;;17.20;90.10;;;;;;5052201;28;20082;-77
2021/08/14 05:55:41;;;;;;;10.13;3.92;;;17.30;90.10;;;;;;5052799;28;20102;-77
2021/08/14 05:58:07;;;;;;;10.90;4.20;;;17.30;90.10;;;;;;5051557;28;20108;-77
2021/08/14 06:00:32;;;;;;;10.35;4.13;;;17.30;90.00;;;;;;5051988;28;20036;-77
2021/08/14 06:02:58;;;;;;;10.55;3.90;;;17.30;90.00;;;;;;5052336;28;20035;-77
2021/08/14 06:05:24;;;;;;;10.05;3.85;;;17.30;90.00;;;;;;5052425;28;20020;-77
2021/08/14 06:07:50;;;;;;;9.18;4.15;;;17.30;90.00;;;;;;5052671;28;20402;-77
2021/08/14 06:10:17;;;;;;;6.40;2.83;;;17.30;90.00;;;;;;5051971;28;20017;-76
2021/08/14 06:12:44;;;;;;;6.88;2.95;;;17.30;90.00;;;;;;5052423;28;20021;-77
2021/08/14 06:15:11;;;;;;;12.95;3.88;;;17.30;90.00;;;;;;5052548;28;20104;-77
2021/08/14 06:17:37;;;;;;;5.72;3.22;;;17.30;90.00;;;;;;5052130;28;20476;-76
2021/08/14 06:20:04;;;;;;;10.32;4.13;;;17.40;90.00;;;;;;5051133;28;20478;-78
2021/08/14 06:22:30;;;;;;;12.02;4.45;;;17.40;89.90;;;;;;5051837;28;20063;-78
2021/08/14 06:24:56;;;;;;;7.47;3.15;;;17.40;90.00;;;;;;5052302;28;20036;-78
2021/08/14 06:27:21;;;;;;;9.50;4.05;;;17.40;90.00;;;;;;5051851;28;20036;-78
2021/08/14 06:29:48;;;;;;;11.35;3.65;;;17.40;90.00;;;;;;5052023;28;20509;-78
2021/08/14 06:32:13;;;;;;;10.15;3.55;;;17.40;90.00;;;;;;5051574;28;20021;-78
2021/08/14 06:34:39;;;;;;;8.40;4.50;;;17.50;90.00;;;;;;5051848;28;20021;-78
2021/08/14 06:37:05;;;;;;;12.15;3.83;;;17.50;90.00;;;;;;5052379;28;20071;-79
2021/08/14 06:39:31;;;;;;;7.70;3.22;;;17.50;90.00;;;;;;5051255;28;20060;-78
2021/08/14 06:41:57;;;;;;;13.27;4.40;;;17.60;90.00;;;;;;5052043;28;20489;-76
2021/08/14 06:44:22;;;;;;;9.82;3.50;;;17.60;90.00;;;;;;5051679;28;20135;-78
2021/08/14 06:46:48;;;;;;;14.45;4.18;;;17.70;90.00;;;;;;5054193;28;20029;-76
2021/08/14 06:49:14;;;;;;;14.75;4.90;;;17.70;90.00;;;;;;5051468;28;20091;-76
2021/08/14 06:51:40;;;;;;;12.55;3.90;;;17.80;90.00;;;;;;5051891;28;20033;-77
2021/08/14 06:54:07;;;;;;;10.27;5.03;;;17.80;90.00;;;;;;5050597;28;20091;-77
2021/08/14 06:56:33;;;;;;;11.30;4.05;;;17.80;90.00;;;;;;5051232;28;20227;-76
2021/08/14 06:58:59;;;;;;;11.88;4.55;;;17.80;90.00;;;;;;5051769;28;20013;-77
2021/08/14 07:01:25;;;;;;;10.15;4.50;;;17.80;90.30;;;;;;5051542;28;20100;-77
2021/08/14 07:03:50;;;;;;;10.88;4.03;;;17.80;90.00;;;;;;5051715;28;20029;-77
2021/08/14 07:06:23;;;;;;;8.68;2.92;;;17.90;90.10;;;;;;5051159;28;20029;-76
2021/08/14 07:08:49;;;;;;;11.82;4.18;;;17.90;90.10;;;;;;5051756;28;20049;-77
2021/08/14 07:11:17;;;;;;;10.02;4.22;;;17.90;90.00;;;;;;5051267;28;20457;-76
2021/08/14 07:13:43;;;;;;;9.05;3.47;;;17.90;90.00;;;;;;5051460;28;20174;-77
2021/08/14 07:16:09;;;;;;;7.55;2.97;;;18.00;90.00;;;;;;5051749;28;20013;-77
2021/08/14 07:18:35;;;;;;;11.32;4.38;;;18.00;90.00;;;;;;5051142;28;20359;-77
2021/08/14 07:21:00;;;;;;;7.47;3.63;;;18.10;90.00;;;;;;5051651;28;20349;-77
2021/08/14 07:23:26;;;;;;;7.72;3.72;;;18.10;89.90;;;;;;5050938;28;20025;-76
2021/08/14 07:25:52;;;;;;;12.52;4.95;;;18.10;90.00;;;;;;5051366;28;20399;-77
2021/08/14 07:28:18;;;;;;;11.40;4.47;;;18.20;90.00;;;;;;5050720;28;20048;-76
2021/08/14 07:30:45;;;;;;;9.82;3.78;;;18.20;90.00;;;;;;5052735;28;20103;-77
2021/08/14 07:33:11;;;;;;;11.55;4.05;;;18.20;90.30;;;;;;5055242;28;20056;-76
2021/08/14 07:35:36;;;;;;;10.73;4.28;;;18.30;90.00;;;;;;5054631;28;20059;-76
2021/08/14 07:38:02;;;;;;;10.93;3.75;;;18.30;90.00;;;;;;5055155;28;20017;-77
2021/08/14 07:40:28;;;;;;;9.18;3.60;;;18.30;90.00;;;;;;5054729;28;20031;-77
2021/08/14 07:42:54;;;;;;;11.88;4.18;;;18.40;90.00;;;;;;5055396;28;20092;-77
2021/08/14 07:45:21;;;;;;;5.68;2.65;;;18.40;90.00;;;;;;5054540;28;20037;-76
2021/08/14 07:47:48;;;;;;;10.57;4.50;;;18.40;89.80;;;;;;5055554;28;20508;-75
2021/08/14 07:50:18;;;;;;;11.23;4.05;;;18.40;89.90;;;;;;5055193;28;20403;-76
2021/08/14 07:52:43;;;;;;;8.43;3.38;;;18.50;90.00;;;;;;5054805;28;20423;-76
2021/08/14 07:55:09;;;;;;;11.70;4.20;;;18.50;89.80;;;;;;5055061;28;20051;-76
2021/08/14 07:57:40;;;;;;;9.65;4.03;;;18.60;89.80;;;;;;5054476;28;20075;-76
2021/08/14 08:00:07;;;;;;;12.98;5.15;;;18.60;89.80;;;;;;5053708;28;20021;-76
2021/08/14 08:02:33;;;;;;;10.45;4.95;;;18.70;89.80;;;;;;5054343;28;20027;-76
2021/08/14 08:04:58;;;;;;;9.77;4.40;;;18.70;89.80;;;;;;5053682;28;20033;-76
2021/08/14 08:07:24;;;;;;;9.85;3.45;;;18.70;89.70;;;;;;5054317;28;20021;-77
2021/08/14 08:09:49;;;;;;;12.98;4.68;;;18.80;89.70;;;;;;5054873;28;20441;-77
2021/08/14 08:12:15;;;;;;;9.27;2.95;;;18.80;89.70;;;;;;5055057;28;20052;-76
2021/08/14 08:14:41;;;;;;;8.88;3.40;;;18.90;89.70;;;;;;5054129;28;20025;-78
2021/08/14 08:17:06;;;;;;;14.32;4.32;;;18.90;89.60;;;;;;5054399;28;20017;-79
2021/08/14 08:19:32;;;;;;;10.43;4.20;;;18.90;89.60;;;;;;5053992;28;20412;-79
2021/08/14 08:21:58;;;;;;;11.27;4.15;;;18.90;89.60;;;;;;5054488;28;20116;-78
2021/08/14 08:24:23;;;;;;;14.82;4.80;;;19.00;89.60;;;;;;5054153;28;20036;-78
2021/08/14 08:26:49;;;;;;;8.95;4.07;;;19.00;89.70;;;;;;5054427;28;20395;-78
2021/08/14 08:29:14;;;;;;;10.48;4.35;;;19.00;89.60;;;;;;5054257;28;20021;-78
2021/08/14 08:31:40;;;;;;;10.60;4.25;;;19.10;90.10;;;;;;5053834;28;20031;-78
2021/08/14 08:34:06;;;;;;;11.75;4.68;;;19.10;89.50;;;;;;5054461;28;20032;-78
2021/08/14 08:36:31;;;;;;;11.45;4.35;;;19.20;89.40;;;;;;5053742;28;20091;-78
2021/08/14 08:38:57;;;;;;;12.68;4.78;;;19.20;89.40;;;;;;5053925;28;20051;-75
2021/08/14 08:41:22;;;;;;;12.70;4.53;;;19.20;89.40;;;;;;5052608;28;20025;-75
2021/08/14 08:43:48;;;;;;;14.93;4.32;;;19.30;89.30;;;;;;5053113;28;20449;-76
2021/08/14 08:46:14;;;;;;;14.98;4.75;;;19.30;89.30;;;;;;5052776;28;20044;-76
2021/08/14 08:48:46;;;;;;;8.80;4.15;;;19.40;89.30;;;;;;5053171;28;20412;-76
2021/08/14 08:51:12;;;;;;;13.40;4.60;;;19.40;89.20;;;;;;5054354;28;20013;-77
2021/08/14 08:53:40;;;;;;;12.55;4.57;;;19.50;89.10;;;;;;5053062;28;20070;-77
2021/08/14 08:56:06;;;;;;;9.10;4.15;;;19.50;89.10;;;;;;5054168;28;20017;-77
2021/08/14 08:58:35;;;;;;;8.10;3.83;;;19.50;88.90;;;;;;5053359;28;20028;-76
2021/08/14 09:01:01;;;;;;;13.30;5.10;;;19.60;88.80;;;;;;5053712;28;20391;-77
2021/08/14 09:03:30;;;;;;;11.05;4.85;;;19.60;88.80;;;;;;5052991;28;20029;-77
2021/08/14 09:05:56;;;;;;;10.70;4.80;;;19.70;88.80;;;;;;5053498;28;20013;-77
2021/08/14 09:08:22;;;;;;;10.30;4.65;;;19.70;88.60;;;;;;5056411;28;20020;-76
2021/08/14 09:10:49;;;;;;;14.60;5.78;;;19.70;88.50;;;;;;5055830;28;20018;-76
2021/08/14 09:13:17;;;;;;;15.95;6.20;;;19.80;88.50;;;;;;5053877;28;20016;-78
2021/08/14 09:15:43;;;;;;;13.75;5.22;;;19.80;88.40;;;;;;5052765;28;20731;-78
2021/08/14 09:18:12;;;;;;;11.35;4.88;;;19.80;88.50;;;;;;5053598;28;20029;-78
2021/08/14 09:20:48;;;;;;;9.73;5.20;;;19.90;88.30;;;;;;5052983;28;20464;-78
2021/08/14 09:23:15;;;;;;;10.52;5.63;;;20.00;88.10;;;;;;5053478;28;20013;-78
2021/08/14 09:25:48;;;;;;;15.05;7.00;;;20.00;88.00;;;;;;5051590;28;20013;-78
2021/08/14 09:28:16;;;;;;;15.60;7.88;;;20.00;87.80;;;;;;5051753;28;20051;-78
2021/08/14 09:30:45;;;;;;;17.75;8.73;;;20.10;87.80;;;;;;5052804;28;20070;-77
2021/08/14 09:33:13;;;;;;;20.20;10.48;;;20.10;87.90;;;;;;5053424;28;20127;-78
2021/08/14 09:35:43;;;;;;;17.08;9.32;;;20.00;88.20;;;;;;5052836;28;20099;-78
2021/08/14 09:38:11;;;;;;;17.92;9.85;;;19.90;89.00;;;;;;5053185;28;20024;-77
2021/08/14 09:40:42;;;;;;;16.73;9.27;;;19.90;88.50;;;;;;5052825;28;20021;-77
2021/08/14 09:43:09;;;;;;;14.20;8.25;;;19.80;88.60;;;;;;5053351;28;20025;-78
2021/08/14 09:45:35;;;;;;;16.67;9.05;;;19.80;88.80;;;;;;5052613;28;20025;-76
2021/08/14 09:48:15;;;;;;;15.93;7.97;;;19.80;88.80;;;;;;5053310;28;20013;-79
2021/08/14 09:50:41;;;;;;;16.00;8.38;;;19.80;88.60;;;;;;5052536;28;20021;-78
2021/08/14 09:53:19;;;;;;;15.63;7.57;;;19.80;88.70;;;;;;5051704;28;20020;-78
2021/08/14 09:55:47;;;;;;;19.80;7.47;;;19.80;88.50;;;;;;5050886;28;20025;-78
2021/08/14 09:58:16;;;;;;;18.38;7.93;;;19.80;88.30;;;;;;5052661;28;20389;-78
2021/08/14 10:00:43;;;;;;;17.35;8.13;;;19.80;88.20;;;;;;5053036;28;20025;-78
2021/08/14 10:03:13;;;;;;;18.20;7.72;;;19.90;88.00;;;;;;5052906;28;20126;-78
2021/08/14 10:05:40;;;;;;;18.52;7.82;;;19.90;87.70;;;;;;5052264;28;20031;-77
2021/08/14 10:08:06;;;;;;;14.65;6.60;;;19.90;87.40;;;;;;5051950;28;20415;-80
2021/08/14 10:10:32;;;;;;;22.02;8.00;;;19.90;87.30;;;;;;5057205;28;20086;-77
2021/08/14 10:12:59;;;;;;;17.10;7.60;;;19.90;87.10;;;;;;5051210;28;20024;-76
2021/08/14 10:15:26;;;;;;;14.80;6.50;;;19.90;86.90;;;;;;5052197;28;20028;-76
2021/08/14 10:17:52;;;;;;;15.55;7.75;;;19.90;86.60;;;;;;5052112;28;20028;-77
2021/08/14 10:20:18;;;;;;;14.10;6.78;;;20.00;86.40;;;;;;5052429;28;20021;-77
2021/08/14 10:22:54;;;;;;;11.10;4.80;;;20.00;86.20;;;;;;5052332;28;20104;-77
2021/08/14 10:25:20;;;;;;;12.02;5.18;;;19.90;86.20;;;;;;5051433;28;20033;-78
2021/08/14 10:28:04;;;;;;;13.85;7.07;;;19.90;86.20;;;;;;5047466;28;20049;-74
2021/08/14 10:30:50;;;;;;;16.48;7.07;;;19.90;85.90;;;;;;5051607;28;20096;-74
2021/08/14 10:33:28;;;;;;;12.77;6.43;;;19.90;86.00;;;;;;5051861;28;20384;-73
2021/08/14 10:36:17;;;;;;;13.77;5.93;;;20.10;86.10;;;;;;5070692;28;20079;-74
2021/08/14 10:38:45;;;;;;;19.83;7.18;;;20.10;85.90;;;;;;5065212;28;20110;-74
2021/08/14 10:41:11;;;;;;;16.17;5.95;;;20.30;85.60;;;;;;5070601;28;20122;-73
2021/08/14 10:43:52;;;;;;;13.48;5.95;;;20.30;85.40;;;;;;5071052;28;20107;-73
2021/08/14 10:46:36;;;;;;;14.18;6.88;;;20.40;85.40;;;;;;5071883;28;20079;-73
2021/08/14 10:49:03;;;;;;;15.80;7.80;;;20.60;85.10;;;;;;5071907;28;20016;-73
2021/08/14 10:51:47;;;;;;;17.50;6.28;;;20.70;84.60;;;;;;5071663;28;20075;-74
2021/08/14 10:54:14;;;;;;;14.05;6.55;;;20.70;84.50;;;;;;5070621;28;20116;-73
2021/08/14 10:57:02;;;;;;;18.08;7.55;;;20.70;84.40;;;;;;5071197;28;20050;-72
2021/08/14 10:59:51;;;;;;;20.17;7.07;;;20.80;84.20;;;;;;5070325;28;20023;-72
2021/08/14 11:02:31;;;;;;;16.98;7.40;;;20.70;84.40;;;;;;5065715;28;20452;-73
2021/08/14 11:04:57;;;;;;;19.10;7.38;;;20.80;84.50;;;;;;5072224;28;20033;-73
2021/08/14 11:07:23;;;;;;;11.98;5.72;;;20.80;84.30;;;;;;5019603;28;20045;-74
2021/08/14 11:10:01;;;;;;;11.60;5.30;;;20.90;84.40;;;;;;5047489;28;20409;-75
2021/08/14 11:12:29;;;;;;;13.07;6.40;;;20.90;84.40;;;;;;5045106;28;20427;-74
2021/08/14 11:15:12;;;;;;;20.38;9.15;;;20.90;84.50;;;;;;5044244;28;20040;-74
2021/08/14 11:17:38;;;;;;;17.58;6.75;;;20.80;84.60;;;;;;5045528;28;20434;-74
2021/08/14 11:20:24;;;;;;;13.10;6.45;;;20.70;84.90;;;;;;5048047;28;20037;-74
2021/08/14 11:22:55;;;;;;;17.52;6.32;;;20.70;85.00;;;;;;5046054;28;20025;-74
2021/08/14 11:25:33;;;;;;;12.73;5.50;;;20.70;84.90;;;;;;5048481;28;20040;-74
2021/08/14 11:28:07;;;;;;;16.90;6.68;;;20.80;84.90;;;;;;5041407;28;20103;-75
2021/08/14 11:30:41;;;;;;;14.65;6.13;;;20.90;84.60;;;;;;5047240;28;20036;-75
2021/08/14 11:33:09;;;;;;;10.90;4.95;;;21.10;84.30;;;;;;5047514;28;20028;-74
2021/08/14 11:35:37;;;;;;;11.95;5.70;;;21.30;83.80;;;;;;5045325;28;20109;-74
2021/08/14 11:38:05;;;;;;;15.88;5.88;;;21.30;83.50;;;;;;5043946;28;20361;-74
2021/08/14 11:40:36;;;;;;;12.57;6.18;;;21.30;83.40;;;;;;5048090;28;20051;-75
2021/08/14 11:43:11;;;;;;;17.10;6.35;;;21.30;83.50;;;;;;5044325;28;20109;-73
2021/08/14 11:45:39;;;;;;;13.80;5.60;;;21.20;83.50;;;;;;5046862;28;20036;-75
2021/08/14 11:48:09;;;;;;;14.32;7.40;;;21.20;83.60;;;;;;5045239;28;20074;-75
2021/08/14 11:50:41;;;;;;;11.57;5.53;;;21.20;83.50;;;;;;5045910;28;20025;-73
2021/08/14 11:53:10;;;;;;;12.15;5.60;;;21.00;83.90;;;;;;5047589;28;20142;-73
2021/08/14 11:55:36;;;;;;;14.05;5.25;;;21.00;84.20;;;;;;5046997;28;20107;-74
2021/08/14 11:58:02;;;;;;;8.95;4.57;;;21.00;84.90;;;;;;5043811;28;20520;-74
2021/08/14 12:00:33;;;;;;;12.38;4.85;;;21.10;84.30;;;;;;5047203;28;20017;-75
2021/08/14 12:03:16;;;;;;;12.90;5.60;;;21.30;84.10;;;;;;5045531;28;20025;-75
2021/08/14 12:05:44;;;;;;;10.50;5.43;;;21.40;83.90;;;;;;5046838;28;20049;-75
2021/08/14 12:08:31;;;;;;;12.57;4.93;;;21.40;83.40;;;;;;5033854;28;20049;-74
2021/08/14 12:11:01;;;;;;;14.95;6.82;;;21.40;83.50;;;;;;5044856;28;20500;-75
2021/08/14 12:13:27;;;;;;;11.23;6.35;;;21.30;83.40;;;;;;5045888;28;20459;-75
2021/08/14 12:16:07;;;;;;;10.50;5.38;;;21.50;83.40;;;;;;5044812;28;20052;-75
2021/08/14 12:18:35;;;;;;;13.68;6.00;;;21.70;82.90;;;;;;5045890;28;20103;-75
2021/08/14 12:21:03;;;;;;;12.18;5.93;;;21.80;82.40;;;;;;5046478;28;20021;-75
2021/08/14 12:23:31;;;;;;;11.57;5.35;;;21.90;82.00;;;;;;5044556;28;20098;-75
2021/08/14 12:26:11;;;;;;;11.07;5.10;;;22.00;81.80;;;;;;5045054;28;20029;-74
2021/08/14 12:28:39;;;;;;;11.95;5.97;;;22.20;81.60;;;;;;5044020;28;20493;-73
2021/08/14 12:31:19;;;;;;;16.40;6.85;;;22.30;81.00;;;;;;5046921;28;20112;-74
2021/08/14 12:34:03;;;;;;;13.60;5.82;;;22.30;80.30;;;;;;5046380;28;20021;-74
2021/08/14 12:36:32;;;;;;;11.68;6.05;;;22.30;80.60;;;;;;5043406;28;20056;-74
2021/08/14 12:38:58;;;;;;;8.77;4.28;;;22.20;80.50;;;;;;5042559;28;20109;-74
2021/08/14 12:41:23;;;;;;;12.95;6.72;;;22.20;80.80;;;;;;5045706;28;20187;-73
2021/08/14 12:43:50;;;;;;;11.07;5.93;;;22.20;81.00;;;;;;5046039;28;20305;-74